createdAt,value
2023-08-01T00:02:28.866Z,0.0
2023-08-01T00:07:29.806Z,0.0
2023-08-01T00:12:30.735Z,0.0
2023-08-01T00:17:31.683Z,0.0
2023-08-01T00:22:32.651Z,0.0
2023-08-01T00:27:40.016Z,0.0
2023-08-01T00:32:41.866Z,0.0
2023-08-01T00:37:42.842Z,0.0
2023-08-01T00:42:43.785Z,0.0
2023-08-01T00:47:44.721Z,0.0
2023-08-01T00:52:45.793Z,0.0
2023-08-01T00:57:46.703Z,0.0
2023-08-01T01:02:47.708Z,0.0
2023-08-01T01:07:48.670Z,0.0
2023-08-01T01:12:49.617Z,0.0
2023-08-01T01:17:50.684Z,0.0
2023-08-01T01:22:51.643Z,0.0
2023-08-01T01:27:52.599Z,0.0
2023-08-01T01:32:53.657Z,0.0
2023-08-01T01:37:54.644Z,0.0
2023-08-01T01:42:55.553Z,0.0
2023-08-01T01:47:56.528Z,0.0
2023-08-01T01:52:57.496Z,0.0
2023-08-01T01:57:58.586Z,0.0
2023-08-01T02:02:59.514Z,0.0
2023-08-01T02:08:00.440Z,0.0
2023-08-01T02:13:01.354Z,0.0
2023-08-01T02:18:02.312Z,0.0
2023-08-01T02:23:03.270Z,0.0
2023-08-01T02:28:04.176Z,0.0
2023-08-01T02:33:05.179Z,0.0
2023-08-01T02:38:06.185Z,0.0
2023-08-01T02:43:07.066Z,0.0
2023-08-01T02:48:08.023Z,0.0
2023-08-01T02:53:08.985Z,0.0
2023-08-01T02:58:09.920Z,0.0
2023-08-01T03:03:11.070Z,0.0
2023-08-01T03:08:12.401Z,1.16185
2023-08-01T03:13:13.583Z,0.4148
2023-08-01T03:18:14.833Z,1.3463
2023-08-01T03:23:15.801Z,1.2444
2023-08-01T03:28:16.737Z,4.0389
2023-08-01T03:33:17.770Z,6.123
2023-08-01T03:38:18.729Z,7.65375
2023-08-01T03:43:19.602Z,11.56335
2023-08-01T03:48:20.520Z,15.0489
2023-08-01T03:53:21.482Z,18.66375
2023-08-01T03:58:22.400Z,19.89975
2023-08-01T04:03:23.494Z,25.04535
2023-08-01T04:08:24.445Z,24.94735
2023-08-01T04:13:25.397Z,32.71005
2023-08-01T04:18:26.366Z,46.8725
2023-08-01T04:23:27.281Z,61.3312
2023-08-01T04:28:28.271Z,69.6864
2023-08-01T04:33:29.219Z,58.072
2023-08-01T04:38:30.163Z,40.23565
2023-08-01T04:43:31.261Z,40.53195
2023-08-01T04:48:32.196Z,36.79875
2023-08-01T04:53:33.138Z,35.7321
2023-08-01T04:58:34.056Z,32.71005
2023-08-01T05:03:35.023Z,31.46565
2023-08-01T05:08:35.965Z,32.7693
2023-08-01T05:13:36.917Z,38.0432
2023-08-01T05:18:37.925Z,38.3395
2023-08-01T05:23:38.870Z,41.9542
2023-08-01T05:28:39.904Z,45.88635
2023-08-01T05:33:40.873Z,48.7688
2023-08-01T05:38:41.776Z,49.89465
2023-08-01T05:43:42.722Z,50.78355
2023-08-01T05:48:43.653Z,52.97605
2023-08-01T05:53:44.583Z,36.757
2023-08-01T05:58:45.507Z,48.6341
2023-08-01T06:03:46.705Z,49.1323
2023-08-01T06:08:47.780Z,41.06535
2023-08-01T06:13:48.777Z,40.427
2023-08-01T06:18:49.738Z,43.3764
2023-08-01T06:23:50.674Z,53.11605
2023-08-01T06:28:51.583Z,61.08355
2023-08-01T06:33:52.516Z,69.53025
2023-08-01T06:38:53.439Z,64.3295
2023-08-01T06:43:54.381Z,71.9977
2023-08-01T06:48:55.310Z,65.0646
2023-08-01T06:53:56.341Z,66.30895
2023-08-01T06:58:57.244Z,68.18395
2023-08-01T07:03:58.240Z,68.8476
2023-08-01T07:08:59.241Z,74.80515
2023-08-01T07:14:00.177Z,86.0186
2023-08-01T07:19:01.138Z,94.57475
2023-08-01T07:24:02.361Z,113.8334
2023-08-01T07:29:03.250Z,153.59405
2023-08-01T07:34:04.178Z,174.6314
2023-08-01T07:39:05.090Z,183.046
2023-08-01T07:44:06.024Z,191.9939
2023-08-01T07:49:07.001Z,186.42245
2023-08-01T07:54:07.912Z,180.40975
2023-08-01T07:59:08.841Z,180.8338
2023-08-01T08:04:09.841Z,146.3092
2023-08-01T08:09:10.770Z,172.2019
2023-08-01T08:14:11.991Z,117.5666
2023-08-01T08:19:13.283Z,142.81025
2023-08-01T08:24:14.516Z,216.37195
2023-08-01T08:29:15.454Z,295.41945
2023-08-01T08:34:16.336Z,431.7492
2023-08-01T08:39:17.285Z,509.0208
2023-08-01T08:44:18.194Z,326.16375
2023-08-01T08:49:19.096Z,258.11095
2023-08-01T08:54:20.154Z,273.1047
2023-08-01T08:59:21.080Z,234.7618
2023-08-01T09:04:21.998Z,319.2478
2023-08-01T09:09:22.925Z,307.1881
2023-08-01T09:14:23.868Z,263.69525
2023-08-01T09:19:24.814Z,330.22165
2023-08-01T09:24:26.071Z,431.234
2023-08-01T09:29:26.994Z,412.9044
2023-08-01T09:34:27.921Z,314.0109
2023-08-01T09:39:28.886Z,222.1559
2023-08-01T09:44:29.928Z,118.8702
2023-08-01T09:49:30.864Z,108.24205
2023-08-01T09:54:31.801Z,181.95765
2023-08-01T09:59:32.712Z,222.82955
2023-08-01T10:04:33.621Z,281.8443
2023-08-01T10:09:34.557Z,316.4259
2023-08-01T10:14:35.479Z,268.47075
2023-08-01T10:19:36.420Z,81.88655
2023-08-01T10:24:37.391Z,134.66985
2023-08-01T10:29:38.274Z,223.05015
2023-08-01T10:34:39.210Z,207.81495
2023-08-01T10:39:40.105Z,243.83415
2023-08-01T10:44:41.056Z,228.28705
2023-08-01T10:49:42.041Z,188.57885
2023-08-01T10:54:42.959Z,293.6074
2023-08-01T10:59:43.935Z,220.2417
2023-08-01T11:04:44.943Z,67.66675
2023-08-01T11:09:45.878Z,66.01265
2023-08-01T11:14:46.811Z,100.16425
2023-08-01T11:19:47.783Z,126.5145
2023-08-01T11:24:48.733Z,142.81025
2023-08-01T11:29:49.676Z,110.87055
2023-08-01T11:34:50.664Z,104.46175
2023-08-01T11:39:52.950Z,140.0251
2023-08-01T11:44:53.990Z,171.4315
2023-08-01T11:49:54.912Z,212.9116
2023-08-01T11:54:55.925Z,198.6899
2023-08-01T11:59:56.864Z,191.105
2023-08-01T12:04:57.817Z,268.08035
2023-08-01T12:09:58.807Z,287.1952
2023-08-01T12:14:59.894Z,367.92905
2023-08-01T12:20:00.902Z,466.5917
2023-08-01T12:25:01.942Z,368.673
2023-08-01T12:30:02.903Z,358.93515
2023-08-01T12:35:03.893Z,326.03075
2023-08-01T12:40:05.028Z,349.1973
2023-08-01T12:45:06.039Z,748.89155
2023-08-01T12:50:07.103Z,448.29655
2023-08-01T12:55:08.065Z,371.3809
2023-08-01T13:00:09.011Z,251.4883
2023-08-01T13:05:10.022Z,425.49335
2023-08-01T13:10:10.952Z,652.1852
2023-08-01T13:15:17.184Z,379.93975
2023-08-01T13:20:18.954Z,692.6587
2023-08-01T13:25:19.930Z,752.4788
2023-08-01T13:30:20.972Z,521.2461
2023-08-01T13:35:22.032Z,1106.88795
2023-08-01T13:40:22.942Z,1310.08425
2023-08-01T13:45:23.907Z,860.1216
2023-08-01T13:50:24.850Z,500.64285
2023-08-01T13:55:25.787Z,1143.39795
2023-08-01T14:00:26.668Z,1046.9987
2023-08-01T14:05:27.536Z,1056.5178
2023-08-01T14:10:28.474Z,1043.401
2023-08-01T14:15:29.445Z,819.8698
2023-08-01T14:20:30.349Z,989.99205
2023-08-01T14:25:32.322Z,587.6866
2023-08-01T14:30:33.337Z,639.8688
2023-08-01T14:35:34.360Z,258.4363
2023-08-01T14:40:35.292Z,255.1009
2023-08-01T14:45:36.239Z,675.8917
2023-08-01T14:50:37.232Z,351.1447
2023-08-01T14:55:38.118Z,759.1264
2023-08-01T15:00:39.025Z,858.4064
2023-08-01T15:05:39.977Z,428.74905
2023-08-01T15:10:40.884Z,299.25305
2023-08-01T15:15:41.870Z,825.929
2023-08-01T15:20:42.806Z,257.3296
2023-08-01T15:25:43.872Z,152.7974
2023-08-01T15:30:44.754Z,53.92615
2023-08-01T15:35:45.725Z,10.2515
2023-08-01T15:40:46.647Z,17.6312
2023-08-01T15:45:47.606Z,33.62135
2023-08-01T15:50:48.549Z,90.42645
2023-08-01T15:55:49.532Z,108.61855
2023-08-01T16:00:50.505Z,126.0403
2023-08-01T16:05:51.450Z,341.37985
2023-08-01T16:10:52.357Z,169.95
2023-08-01T16:15:53.315Z,397.9706
2023-08-01T16:20:54.270Z,361.7649
2023-08-01T16:25:55.222Z,241.76965
2023-08-01T16:30:56.333Z,161.5356
2023-08-01T16:35:57.288Z,307.1891
2023-08-01T16:40:58.200Z,325.73665
2023-08-01T16:45:59.200Z,297.8265
2023-08-01T16:51:00.116Z,155.92935
2023-08-01T16:56:01.153Z,116.53675
2023-08-01T17:01:02.289Z,88.08185
2023-08-01T17:06:03.266Z,266.6569
2023-08-01T17:11:04.176Z,263.1018
2023-08-01T17:16:05.165Z,206.4523
2023-08-01T17:21:06.086Z,130.57025
2023-08-01T17:26:07.096Z,112.33055
2023-08-01T17:31:08.228Z,101.1361
2023-08-01T17:36:09.190Z,83.6532
2023-08-01T17:41:10.087Z,81.0366
2023-08-01T17:46:11.191Z,70.3977
2023-08-01T17:51:12.255Z,118.9291
2023-08-01T17:56:13.609Z,124.1437
2023-08-01T18:01:14.838Z,67.49415
2023-08-01T18:06:16.189Z,85.62675
2023-08-01T18:11:17.223Z,96.9336
2023-08-01T18:16:18.189Z,63.58985
2023-08-01T18:21:19.170Z,57.18925
2023-08-01T18:26:20.093Z,54.86555
2023-08-01T18:31:21.013Z,43.6711
2023-08-01T18:36:21.955Z,33.58335
2023-08-01T18:41:22.875Z,24.28855
2023-08-01T18:46:23.856Z,16.1556
2023-08-01T18:51:24.759Z,12.30115
2023-08-01T18:56:25.671Z,5.6887
2023-08-01T19:01:26.895Z,4.7767
2023-08-01T19:06:28.357Z,2.1925
2023-08-01T19:11:29.541Z,3.85445
2023-08-01T19:16:30.520Z,0.8296
2023-08-01T19:21:31.436Z,0.4148
2023-08-01T19:26:32.420Z,1.16185
2023-08-01T19:31:33.378Z,0.0
2023-08-01T19:36:34.353Z,0.0
2023-08-01T19:41:35.296Z,0.0
2023-08-01T19:46:36.240Z,0.0
2023-08-01T19:51:37.143Z,0.0
2023-08-01T19:56:38.052Z,0.0
2023-08-01T20:01:38.988Z,0.0
2023-08-01T20:06:40.261Z,0.0
2023-08-01T20:11:41.427Z,0.0
2023-08-01T20:16:42.534Z,0.0
2023-08-01T20:21:43.664Z,0.0
2023-08-01T20:26:44.654Z,0.0
2023-08-01T20:31:45.632Z,0.0
2023-08-01T20:36:46.553Z,0.0
2023-08-01T20:41:47.455Z,0.0
2023-08-01T20:46:48.442Z,0.0
2023-08-01T20:51:49.328Z,0.0
2023-08-01T20:56:50.271Z,0.0
2023-08-01T21:01:51.173Z,0.0
2023-08-01T21:06:52.232Z,0.0
2023-08-01T21:11:53.167Z,0.0
2023-08-01T21:16:54.074Z,0.0
2023-08-01T21:21:55.114Z,0.0
2023-08-01T21:26:56.084Z,0.0
2023-08-01T21:31:57.004Z,0.0
2023-08-01T21:36:58.075Z,0.0
2023-08-01T21:41:58.965Z,0.0
2023-08-01T21:46:59.934Z,0.0
2023-08-01T21:52:00.964Z,0.0
2023-08-01T21:57:02.168Z,0.0
2023-08-01T22:02:03.115Z,0.0
2023-08-01T22:07:04.085Z,0.0
2023-08-01T22:12:05.111Z,0.0
2023-08-01T22:17:06.044Z,0.0
2023-08-01T22:22:07.016Z,0.0
2023-08-01T22:27:07.990Z,0.0
2023-08-01T22:32:08.893Z,0.0
2023-08-01T22:37:09.806Z,0.0
2023-08-01T22:42:10.703Z,0.0
2023-08-01T22:47:11.653Z,0.0
2023-08-01T22:52:12.840Z,0.0
2023-08-01T22:57:14.159Z,0.0
2023-08-01T23:02:15.421Z,0.0
2023-08-01T23:07:16.712Z,0.0
2023-08-01T23:12:17.744Z,0.0
2023-08-01T23:17:18.649Z,0.0
2023-08-01T23:22:19.628Z,0.0
2023-08-01T23:27:20.554Z,0.0
2023-08-01T23:32:21.529Z,0.0
2023-08-01T23:37:22.542Z,0.0
2023-08-01T23:42:23.458Z,0.0
2023-08-01T23:47:24.470Z,0.0
2023-08-01T23:52:25.367Z,0.0
2023-08-01T23:57:26.292Z,0.0
